메인 페이지
METAR-TAF:

METAR-TAF

공항 :

Adirondack Regional Airport

Saranac Lake, 뉴욕, 미국

위도: 44-23-35N, 경도: 074-12-10W, 고도: 507m

현재 날씨관측

예보는 36분 전, 20:51시(UTC)에 발표되었습니다.
북서7kt풍과 풍을 오가는
온도 -5°C
습도 42%
기압 1024 hPa
시정: 16.1km
맑음

METAR: KSLK 072051Z AUTO 31007KT 280V350 10SM CLR M05/M16 A3023 RMK AO2 SLP272 T10501156 53007

시각: 16:27 (21:27 UTC)

예보

예보는 4 시간 4분 전, 17:23시(UTC)에 발표되었습니다.
예보 대상 시간: 07일 18시부터 08일 18시까지 (UTC)
7kt
시정: 10km
고도 5000ft 상공 구름 조금
08일 0300시부터 (UTC)
여러 방향의 바람 3kt
시정: 10km
고도 25000ft 상공 구름 보통
08일 0600시부터 (UTC)
kt
시정: 10km
고도 2500ft 상공 구름 보통
08일 1300시부터 (UTC)
남남서4kt
시정: 10km
고도 25000ft 상공 구름 조금

TAF: KSLK 071723Z 0718/0818 28007KT P6SM FEW050 FM080300 VRB03KT P6SM SCT250 FM080600 00000KT P6SM SCT025 FM081300 21004KT P6SM FEW250

4,000개 이상의 공항 관측 자료 및 예보 (METAR 및 TAF 보고).

지도상에서 검색 가능한 기상관측소가 노란 점과 빨간 점으로 표시되어 있습니다.

기상관측소 명을 보려면 표시 위로 마우스를 이동하세요.

날씨 관측과 예보를 보려면 클릭하세요.

지도 변경 : 확대하려면 엑스 표시가 있는 녹색 버튼, 축소하려면 빼기 표시가 있는 녹색 버튼, 다음 페이지의 지도를 보려면 녹색 화살표를 클릭하세요.


METAR-TAF: